Upstream stations:
Downstream station:
SHEF ID: QUAO2 Spring River near Quapaw, OK
STATION TYPE:
Regulating: Stage = 20.00, Flow = 33676
PRECIP STAGE STAGE(2) RIV-FLOW BAT-LOAD
in ft ft cfs volt
Ccp-Rev Ccp-Rev Ccp-Rev Ccp-Rev Ccp-Rev
(US/Central)
04/07 00:00 0.00 7.67 7.94 2109 12.27
04/07 01:00 0.00 7.64 7.93 2068 12.24
04/07 02:00 0.00 7.63 7.92 2054 12.25
04/07 03:00 0.00 7.64 7.90 2068 12.24
04/07 04:00 0.00 7.62 7.89 2041 12.21
04/07 05:00 0.00 7.62 7.89 2041 12.19
04/07 06:00 0.00 7.60 7.87 2014 12.17
04/07 07:00 0.00 7.59 7.87 2001 12.14
04/07 08:00 0.00 7.58 7.86 1988 12.17
04/07 09:00 0.00 7.57 7.81 1974 12.69
04/07 10:00 0.00 7.56 7.77 1961 13.31
04/07 11:00 0.00 7.54 7.76 1935 13.29
04/07 12:00 0.00 7.52 7.74 1909 12.96
04/07 13:00 0.00 7.50 7.74 1883 12.73
04/07 14:00 0.00 7.50 7.71 1883 12.76
04/07 15:00 0.00 7.48 7.72 1858 12.90
04/07 16:00 0.00 7.46 7.72 1832 12.62
04/07 17:00 0.00 7.47 7.66 1845 12.83
04/07 18:00 0.00 7.46 7.71 1832 12.73
04/07 19:00 0.00 7.46 7.68 1832 12.59
04/07 20:00 0.00 7.46 7.72 1832 12.39
04/07 21:00 0.00 7.45 7.71 1883 12.31
04/07 22:00 0.00 7.44 7.69 1870 12.29
04/07 23:00 0.00 7.43 7.65 1858 12.25